Time;durP1;ratioP1;P1;durP2;ratioP2;P2;SDS_P1;SDS_P2;PMS_P1;PMS_P2;Temp;Humidity;BMP_temperature;BMP_pressure;BME280_temperature;BME280_humidity;BME280_pressure;Samples;Min_cycle;Max_cycle;Signal;HPM_P1;HPM_P2
2022/08/29 00:02:02;;;;;;;11.13;10.13;;;20.90;99.90;;;;;;6223844;28;20198;-67
2022/08/29 00:05:06;;;;;;;11.47;9.87;;;20.90;99.90;;;;;;6223707;28;20300;-67
2022/08/29 00:08:10;;;;;;;10.53;9.60;;;20.90;99.90;;;;;;6224197;28;20201;-67
2022/08/29 00:11:13;;;;;;;11.60;10.50;;;20.90;99.90;;;;;;6224717;28;20225;-67
2022/08/29 00:14:18;;;;;;;12.70;11.50;;;20.90;99.90;;;;;;6225980;28;20229;-67
2022/08/29 00:17:25;;;;;;;12.00;10.63;;;20.90;99.90;;;;;;6225468;28;20237;-66
2022/08/29 00:20:32;;;;;;;10.00;9.00;;;20.90;99.90;;;;;;6225505;28;20236;-66
2022/08/29 00:23:36;;;;;;;10.53;9.23;;;21.00;99.90;;;;;;6225348;28;20229;-67
2022/08/29 00:26:39;;;;;;;10.70;9.70;;;21.00;99.90;;;;;;6224478;28;20240;-66
2022/08/29 00:29:44;;;;;;;12.57;9.37;;;21.00;99.90;;;;;;6223716;28;20229;-66
2022/08/29 00:32:47;;;;;;;11.03;9.90;;;21.00;99.90;;;;;;6224343;28;20248;-67
2022/08/29 00:35:50;;;;;;;9.40;8.60;;;21.00;99.90;;;;;;6210241;28;20305;-66
2022/08/29 00:38:53;;;;;;;9.50;8.50;;;20.90;99.90;;;;;;6224544;28;20232;-66
2022/08/29 00:42:00;;;;;;;9.57;8.77;;;20.90;99.90;;;;;;6226103;28;20229;-67
2022/08/29 00:45:06;;;;;;;10.80;9.80;;;20.90;99.90;;;;;;6225752;28;20244;-66
2022/08/29 00:48:14;;;;;;;9.07;8.27;;;20.90;99.90;;;;;;6225762;28;20712;-66
2022/08/29 00:51:19;;;;;;;10.77;9.13;;;20.90;99.90;;;;;;6225698;28;20237;-66
2022/08/29 00:54:23;;;;;;;10.77;9.67;;;20.90;99.90;;;;;;6225744;28;20235;-67
2022/08/29 00:57:30;;;;;;;10.60;9.50;;;20.90;99.90;;;;;;6225284;28;20233;-66
2022/08/29 01:00:35;;;;;;;9.20;8.40;;;21.00;99.90;;;;;;6225577;28;20228;-66
2022/08/29 01:03:40;;;;;;;10.07;9.10;;;21.00;99.90;;;;;;6225347;28;20703;-65
2022/08/29 01:06:45;;;;;;;9.80;8.80;;;21.10;99.90;;;;;;6225458;28;20308;-65
2022/08/29 01:09:48;;;;;;;9.07;8.33;;;21.10;99.90;;;;;;6225150;28;20236;-66
2022/08/29 01:12:50;;;;;;;10.63;9.63;;;21.10;99.90;;;;;;6225290;28;20240;-66
2022/08/29 01:15:56;;;;;;;11.77;10.57;;;21.10;99.90;;;;;;6225494;28;20247;-67
2022/08/29 01:19:03;;;;;;;12.27;11.07;;;21.10;99.90;;;;;;6225625;28;20598;-67
2022/08/29 01:22:15;;;;;;;14.10;12.83;;;20.90;99.90;;;;;;6225604;28;20233;-66
2022/08/29 01:25:21;;;;;;;16.60;13.97;;;20.90;99.90;;;;;;6230072;28;20233;-66
2022/08/29 01:28:28;;;;;;;15.57;14.00;;;20.80;99.90;;;;;;6229952;28;20221;-66
2022/08/29 01:31:39;;;;;;;16.97;15.27;;;20.80;99.90;;;;;;6229667;28;20236;-66
2022/08/29 01:34:59;;;;;;;15.97;14.37;;;20.80;99.90;;;;;;6229553;28;20247;-66
2022/08/29 01:38:03;;;;;;;17.50;15.70;;;20.70;99.90;;;;;;6220629;28;20225;-66
2022/08/29 01:41:09;;;;;;;18.70;16.87;;;20.80;99.90;;;;;;6229365;28;20667;-66
2022/08/29 01:44:16;;;;;;;16.73;15.03;;;20.70;99.90;;;;;;6230250;28;20229;-66
2022/08/29 01:47:20;;;;;;;17.70;15.90;;;20.60;99.90;;;;;;6229685;28;20236;-66
2022/08/29 01:50:23;;;;;;;20.40;18.30;;;20.60;99.90;;;;;;6229527;28;20240;-66
2022/08/29 01:53:26;;;;;;;20.83;18.60;;;20.60;99.90;;;;;;6229637;28;20233;-66
2022/08/29 01:56:33;;;;;;;19.90;17.80;;;20.50;99.90;;;;;;6229109;28;20233;-66
2022/08/29 01:59:37;;;;;;;20.03;17.50;;;20.50;99.90;;;;;;6229547;28;20233;-65
2022/08/29 02:02:42;;;;;;;20.17;16.57;;;20.40;99.90;;;;;;6229159;28;20225;-65
2022/08/29 02:05:46;;;;;;;16.93;15.20;;;20.50;99.90;;;;;;6229049;28;20244;-65
2022/08/29 02:08:49;;;;;;;17.03;15.53;;;20.50;99.90;;;;;;6228798;28;20240;-65
2022/08/29 02:11:54;;;;;;;17.90;16.20;;;20.40;99.90;;;;;;6229211;28;20564;-65
2022/08/29 02:14:57;;;;;;;16.50;14.80;;;20.40;99.90;;;;;;6229253;28;20233;-65
2022/08/29 02:18:01;;;;;;;17.97;15.97;;;20.40;99.90;;;;;;6229019;28;20248;-65
2022/08/29 02:21:04;;;;;;;17.63;15.90;;;20.40;99.90;;;;;;6228830;28;20236;-65
2022/08/29 02:24:08;;;;;;;16.97;14.53;;;20.40;99.90;;;;;;6228458;28;20709;-65
2022/08/29 02:27:30;;;;;;;16.40;14.80;;;20.40;99.90;;;;;;6228593;28;20308;-65
2022/08/29 02:30:34;;;;;;;15.10;13.50;;;20.40;99.90;;;;;;6228628;28;20704;-65
2022/08/29 02:33:37;;;;;;;16.70;15.00;;;20.40;99.90;;;;;;6228670;28;20229;-65
2022/08/29 02:36:41;;;;;;;15.77;14.27;;;20.40;99.90;;;;;;6227694;28;20244;-66
2022/08/29 02:39:46;;;;;;;16.20;14.50;;;20.50;99.90;;;;;;6228094;28;20244;-66
2022/08/29 02:42:52;;;;;;;15.40;13.90;;;20.60;99.90;;;;;;6223955;28;20584;-66
2022/08/29 02:45:55;;;;;;;15.27;13.63;;;20.60;99.90;;;;;;6228269;28;20237;-66
2022/08/29 02:48:59;;;;;;;20.53;14.30;;;20.70;99.90;;;;;;6228435;28;20228;-66
2022/08/29 02:52:05;;;;;;;17.67;15.93;;;20.60;99.90;;;;;;6227964;28;20623;-66
2022/08/29 02:55:11;;;;;;;16.53;14.97;;;20.60;99.90;;;;;;6227559;28;20323;-66
2022/08/29 02:58:16;;;;;;;15.40;13.90;;;20.60;99.90;;;;;;6227479;28;20236;-66
2022/08/29 03:01:21;;;;;;;19.20;16.10;;;20.60;99.90;;;;;;6227892;28;20225;-66
2022/08/29 03:04:24;;;;;;;16.03;14.40;;;20.60;99.90;;;;;;6227317;28;20238;-66
2022/08/29 03:07:28;;;;;;;18.03;15.13;;;20.50;99.90;;;;;;6227580;28;20225;-66
2022/08/29 03:10:31;;;;;;;16.67;14.80;;;20.50;99.90;;;;;;6227054;28;20233;-66
2022/08/29 03:13:35;;;;;;;17.50;15.63;;;20.50;99.90;;;;;;6227685;28;20244;-66
2022/08/29 03:16:39;;;;;;;15.90;14.30;;;20.40;99.90;;;;;;6227393;28;20252;-66
2022/08/29 03:19:42;;;;;;;16.93;15.13;;;20.40;99.90;;;;;;6227020;28;20239;-66
2022/08/29 03:22:46;;;;;;;16.10;14.50;;;20.40;99.90;;;;;;6227433;28;20228;-66
2022/08/29 03:25:49;;;;;;;14.40;13.07;;;20.40;99.90;;;;;;6227002;28;20686;-66
2022/08/29 03:28:54;;;;;;;14.00;12.67;;;20.40;99.90;;;;;;6227286;28;20231;-66
2022/08/29 03:31:57;;;;;;;15.60;11.70;;;20.50;99.90;;;;;;6227536;28;20206;-66
2022/08/29 03:35:00;;;;;;;10.97;9.87;;;20.40;99.90;;;;;;6227502;28;20306;-66
2022/08/29 03:38:03;;;;;;;11.03;9.93;;;20.50;99.90;;;;;;6226793;28;20239;-67
2022/08/29 03:41:08;;;;;;;9.87;8.87;;;20.50;99.90;;;;;;6227150;28;20212;-66
2022/08/29 03:44:12;;;;;;;13.83;9.97;;;20.50;99.90;;;;;;6226856;28;20247;-66
2022/08/29 03:47:16;;;;;;;9.63;8.73;;;20.50;99.90;;;;;;6226855;28;20568;-66
2022/08/29 03:50:19;;;;;;;9.77;8.73;;;20.50;99.90;;;;;;6226835;28;20543;-66
2022/08/29 03:53:23;;;;;;;7.77;7.07;;;20.50;99.90;;;;;;6226795;28;20229;-66
2022/08/29 03:56:27;;;;;;;7.80;6.80;;;20.50;99.90;;;;;;6226510;28;20239;-66
2022/08/29 03:59:32;;;;;;;7.77;7.07;;;20.50;99.90;;;;;;6226561;28;20229;-66
2022/08/29 04:02:35;;;;;;;8.00;7.20;;;20.50;99.90;;;;;;6226455;28;20236;-66
2022/08/29 04:05:38;;;;;;;6.10;5.50;;;20.50;99.90;;;;;;6226187;28;20311;-66
2022/08/29 04:08:42;;;;;;;5.20;4.60;;;20.50;99.90;;;;;;6226502;28;20221;-66
2022/08/29 04:11:45;;;;;;;6.63;6.00;;;20.50;99.90;;;;;;6226093;28;20677;-66
2022/08/29 04:14:49;;;;;;;5.57;5.03;;;20.60;99.90;;;;;;6226185;28;20367;-66
2022/08/29 04:17:54;;;;;;;4.80;4.30;;;20.50;99.90;;;;;;6226180;28;20233;-66
2022/08/29 04:21:02;;;;;;;5.17;4.60;;;20.50;99.90;;;;;;6226000;28;20694;-66
2022/08/29 04:24:05;;;;;;;5.60;4.17;;;20.50;99.90;;;;;;6226259;28;20229;-66
2022/08/29 04:27:08;;;;;;;4.63;4.23;;;20.50;99.90;;;;;;6226047;28;20233;-66
2022/08/29 04:30:16;;;;;;;4.83;4.43;;;20.40;99.90;;;;;;6226053;28;20563;-66
2022/08/29 04:33:20;;;;;;;5.47;4.60;;;20.40;99.90;;;;;;6226118;28;20225;-66
2022/08/29 04:36:24;;;;;;;5.73;5.23;;;20.40;99.90;;;;;;6226067;28;20272;-66
2022/08/29 04:39:28;;;;;;;5.60;5.10;;;20.40;99.90;;;;;;6226062;28;20240;-66
2022/08/29 04:42:31;;;;;;;6.77;5.63;;;20.40;99.90;;;;;;6225743;28;20248;-66
2022/08/29 04:45:36;;;;;;;6.30;5.70;;;20.30;99.90;;;;;;6225654;28;20695;-66
2022/08/29 04:48:39;;;;;;;5.60;5.10;;;20.30;99.90;;;;;;6225530;28;20674;-66
2022/08/29 04:51:42;;;;;;;6.73;6.07;;;20.40;99.90;;;;;;6220933;28;20224;-66
2022/08/29 04:54:45;;;;;;;9.17;6.20;;;20.40;99.90;;;;;;6225442;28;20237;-66
2022/08/29 04:57:50;;;;;;;7.67;5.40;;;20.40;99.90;;;;;;6225408;28;20229;-65
2022/08/29 05:00:54;;;;;;;6.43;5.33;;;20.40;99.90;;;;;;6225788;28;20240;-65
2022/08/29 05:03:57;;;;;;;5.33;4.83;;;20.50;99.90;;;;;;6225412;28;20229;-66
2022/08/29 05:07:01;;;;;;;6.13;5.60;;;20.60;99.90;;;;;;6225538;28;20533;-66
2022/08/29 05:10:08;;;;;;;8.63;5.33;;;20.60;99.90;;;;;;6225319;28;20225;-66
2022/08/29 05:13:11;;;;;;;9.00;5.50;;;20.70;99.90;;;;;;6225670;28;20243;-66
2022/08/29 05:16:17;;;;;;;4.93;4.47;;;20.80;99.90;;;;;;6225309;28;20243;-66
2022/08/29 05:19:20;;;;;;;7.20;5.00;;;20.80;99.90;;;;;;6225314;28;20260;-66
2022/08/29 05:22:24;;;;;;;5.90;4.33;;;20.90;99.90;;;;;;6224812;28;20231;-66
2022/08/29 05:25:27;;;;;;;5.73;3.60;;;20.90;99.90;;;;;;6225362;28;20693;-66
2022/08/29 05:28:34;;;;;;;3.83;3.53;;;21.00;99.90;;;;;;6225057;28;20594;-66
2022/08/29 05:31:40;;;;;;;5.87;3.90;;;21.10;99.90;;;;;;6225197;28;20229;-66
2022/08/29 05:34:47;;;;;;;4.73;3.70;;;21.20;99.90;;;;;;6225150;28;20231;-66
2022/08/29 05:37:51;;;;;;;9.77;3.83;;;21.20;99.90;;;;;;6225353;28;20237;-65
2022/08/29 05:40:54;;;;;;;4.37;4.00;;;21.20;99.90;;;;;;6225173;28;20225;-65
2022/08/29 05:43:57;;;;;;;3.60;3.30;;;21.20;99.90;;;;;;6225378;28;20213;-65
2022/08/29 05:47:03;;;;;;;7.50;3.90;;;21.30;99.90;;;;;;6225175;28;20688;-65
2022/08/29 05:50:07;;;;;;;4.70;4.30;;;21.30;99.90;;;;;;6224837;28;20220;-67
2022/08/29 05:53:11;;;;;;;3.87;3.50;;;21.40;99.90;;;;;;6211465;28;20220;-66
2022/08/29 05:56:22;;;;;;;4.60;3.80;;;21.50;99.90;;;;;;6224822;28;20570;-66
2022/08/29 05:59:25;;;;;;;5.07;3.93;;;21.60;99.90;;;;;;6225953;28;20248;-67
2022/08/29 06:02:29;;;;;;;3.80;3.50;;;21.70;99.90;;;;;;6225354;28;20248;-66
2022/08/29 06:05:33;;;;;;;4.47;3.90;;;21.80;99.90;;;;;;6225364;28;20338;-66
2022/08/29 06:08:36;;;;;;;5.50;3.63;;;22.00;99.90;;;;;;6225867;28;20243;-66
2022/08/29 06:11:39;;;;;;;4.10;3.80;;;22.00;99.90;;;;;;6228911;28;20707;-65
2022/08/29 06:14:42;;;;;;;5.93;4.00;;;22.40;99.90;;;;;;6229599;28;20336;-66
2022/08/29 06:17:54;;;;;;;3.80;3.30;;;23.70;99.90;;;;;;6229067;28;20280;-66
2022/08/29 06:20:57;;;;;;;3.43;3.17;;;25.00;99.90;;;;;;6228816;28;20530;-66
2022/08/29 06:24:00;;;;;;;5.53;3.60;;;26.40;99.90;;;;;;6229478;28;20696;-66
2022/08/29 06:27:03;;;;;;;4.20;3.77;;;27.40;99.90;;;;;;6229156;28;20235;-66
2022/08/29 06:30:07;;;;;;;5.30;3.30;;;28.20;98.10;;;;;;6228661;28;20243;-66
2022/08/29 06:33:12;;;;;;;3.63;3.33;;;29.10;95.80;;;;;;6228987;28;20233;-66
2022/08/29 06:36:15;;;;;;;5.10;3.10;;;29.10;94.10;;;;;;6228206;28;20282;-66
2022/08/29 06:39:19;;;;;;;3.60;3.30;;;29.30;93.10;;;;;;6228875;28;20228;-66
2022/08/29 06:42:23;;;;;;;5.90;3.47;;;29.80;92.00;;;;;;6228550;28;20251;-66
2022/08/29 06:45:30;;;;;;;4.28;3.88;;;30.60;90.50;;;;;;6228685;28;20311;-68
2022/08/29 06:48:35;;;;;;;4.05;3.65;;;31.60;87.00;;;;;;6228506;28;20239;-67
2022/08/29 06:51:40;;;;;;;6.45;4.10;;;31.90;83.50;;;;;;6229230;28;20273;-66
2022/08/29 06:54:43;;;;;;;8.10;3.75;;;32.00;81.70;;;;;;6230102;28;20661;-66
2022/08/29 06:57:48;;;;;;;11.00;4.90;;;32.70;78.80;;;;;;6223618;28;20228;-66
2022/08/29 07:00:51;;;;;;;5.10;4.57;;;33.90;75.10;;;;;;6227284;28;20680;-66
2022/08/29 07:03:57;;;;;;;4.78;4.40;;;34.40;71.10;;;;;;6228265;28;20544;-66
2022/08/29 07:07:00;;;;;;;5.55;4.43;;;34.50;70.30;;;;;;6227834;28;20580;-66
2022/08/29 07:10:04;;;;;;;5.03;4.53;;;35.30;67.30;;;;;;6227974;28;20688;-66
2022/08/29 07:13:07;;;;;;;5.38;4.47;;;36.10;64.40;;;;;;6227632;28;20255;-66
2022/08/29 07:16:13;;;;;;;9.57;5.95;;;36.00;62.60;;;;;;6227665;28;20584;-66
2022/08/29 07:19:18;;;;;;;5.13;4.72;;;36.40;61.60;;;;;;6227753;28;20310;-67
2022/08/29 07:22:21;;;;;;;6.28;5.78;;;37.00;59.50;;;;;;6226501;28;20308;-67
2022/08/29 07:25:26;;;;;;;6.45;5.82;;;37.10;58.40;;;;;;6227147;28;20236;-67
2022/08/29 07:28:33;;;;;;;5.78;5.28;;;37.40;58.30;;;;;;6227352;28;20699;-67
2022/08/29 07:31:39;;;;;;;8.52;6.82;;;37.00;57.70;;;;;;6227351;28;20252;-67
2022/08/29 07:34:44;;;;;;;6.00;5.45;;;38.00;56.50;;;;;;6226916;28;20295;-67
2022/08/29 07:37:47;;;;;;;5.70;5.30;;;39.10;54.00;;;;;;6227016;28;20236;-67
2022/08/29 07:40:58;;;;;;;4.93;4.53;;;39.60;51.30;;;;;;6227025;28;20574;-67
2022/08/29 07:44:01;;;;;;;5.30;4.90;;;40.60;49.60;;;;;;6227369;28;20209;-67
2022/08/29 07:47:04;;;;;;;4.97;4.57;;;41.10;46.70;;;;;;6226565;28;20232;-67
2022/08/29 07:50:11;;;;;;;4.85;4.10;;;40.00;48.10;;;;;;6226231;28;20192;-67
2022/08/29 07:53:14;;;;;;;4.10;3.80;;;40.40;47.70;;;;;;6226009;28;20243;-71
2022/08/29 07:56:21;;;;;;;3.85;3.55;;;41.20;46.20;;;;;;6224574;28;20244;-68
2022/08/29 07:59:26;;;;;;;3.63;3.38;;;41.80;44.40;;;;;;6225881;28;20713;-68
2022/08/29 08:02:29;;;;;;;4.15;3.85;;;42.50;42.80;;;;;;6226603;28;20243;-69
2022/08/29 08:05:35;;;;;;;4.53;3.63;;;43.20;41.60;;;;;;6225983;28;20298;-68
2022/08/29 08:08:40;;;;;;;4.20;3.90;;;43.60;41.00;;;;;;6226104;28;20267;-67
2022/08/29 08:11:43;;;;;;;4.13;3.83;;;44.10;39.60;;;;;;6226091;28;20400;-67
2022/08/29 08:14:46;;;;;;;3.55;3.25;;;44.70;38.50;;;;;;6225645;28;20583;-67
2022/08/29 08:17:49;;;;;;;3.85;3.33;;;44.30;37.90;;;;;;6225987;28;20235;-67
2022/08/29 08:20:54;;;;;;;3.95;3.75;;;44.60;37.60;;;;;;6227477;28;20239;-68
2022/08/29 08:23:57;;;;;;;3.78;3.47;;;44.90;36.70;;;;;;6226377;28;20275;-69
2022/08/29 08:27:01;;;;;;;3.28;3.08;;;44.90;36.00;;;;;;6225640;28;20255;-68
2022/08/29 08:30:04;;;;;;;3.70;3.40;;;45.00;35.60;;;;;;6225771;28;20239;-68
2022/08/29 08:33:08;;;;;;;3.08;2.88;;;43.90;37.40;;;;;;6225241;28;20251;-68
2022/08/29 08:36:19;;;;;;;3.20;3.00;;;45.00;36.10;;;;;;6226054;28;20232;-67
2022/08/29 08:39:22;;;;;;;3.38;2.83;;;41.10;39.50;;;;;;6225531;28;20232;-67
2022/08/29 08:42:34;;;;;;;3.05;2.85;;;40.30;41.60;;;;;;6224893;28;20571;-67
2022/08/29 08:45:40;;;;;;;3.10;2.88;;;42.30;39.50;;;;;;6224875;28;20572;-67
2022/08/29 08:48:45;;;;;;;3.10;2.90;;;44.10;37.00;;;;;;6225305;28;20290;-67
2022/08/29 08:51:53;;;;;;;3.50;3.22;;;45.00;35.90;;;;;;6224733;28;20535;-68
2022/08/29 08:55:01;;;;;;;4.00;3.80;;;45.60;35.20;;;;;;6222201;28;20229;-68
2022/08/29 08:58:13;;;;;;;3.72;3.42;;;45.90;34.40;;;;;;6225459;28;20230;-67
2022/08/29 09:01:21;;;;;;;3.50;3.30;;;45.90;34.00;;;;;;6225261;28;20238;-67
2022/08/29 09:04:36;;;;;;;4.25;3.95;;;45.50;33.90;;;;;;6225183;28;20311;-68
2022/08/29 09:07:53;;;;;;;3.75;3.45;;;45.50;34.20;;;;;;6220649;28;20318;-68
2022/08/29 09:11:01;;;;;;;3.17;2.97;;;46.50;33.10;;;;;;6225389;28;20244;-67
2022/08/29 09:14:13;;;;;;;3.92;3.60;;;46.30;33.00;;;;;;6225705;28;20199;-69
2022/08/29 09:17:21;;;;;;;3.08;2.88;;;46.70;31.90;;;;;;6226500;28;20245;-69
2022/08/29 09:20:28;;;;;;;3.35;3.15;;;45.70;32.10;;;;;;6226034;28;20237;-68
2022/08/29 09:23:39;;;;;;;3.60;3.30;;;44.90;32.80;;;;;;6225866;28;20220;-68
2022/08/29 09:26:46;;;;;;;3.35;3.05;;;42.50;35.20;;;;;;6225264;28;20248;-68
2022/08/29 09:29:54;;;;;;;2.92;2.72;;;41.20;36.70;;;;;;6223613;28;20406;-69
2022/08/29 09:33:01;;;;;;;2.53;2.33;;;41.90;37.00;;;;;;6223918;28;20692;-67
2022/08/29 09:36:05;;;;;;;7.70;3.00;;;42.30;35.70;;;;;;6225145;28;20315;-69
2022/08/29 09:39:17;;;;;;;2.90;2.70;;;42.00;35.80;;;;;;6224961;28;20233;-69
2022/08/29 09:42:23;;;;;;;2.63;2.50;;;41.40;36.90;;;;;;6225030;28;20233;-68
2022/08/29 09:45:26;;;;;;;3.10;2.47;;;40.50;37.40;;;;;;6228800;28;20239;-67
2022/08/29 09:48:30;;;;;;;2.72;2.53;;;39.90;37.50;;;;;;6229368;28;20232;-67
2022/08/29 09:51:39;;;;;;;2.90;2.70;;;37.90;38.60;;;;;;6229564;28;20234;-68
2022/08/29 09:54:44;;;;;;;2.40;2.20;;;36.90;41.00;;;;;;6229322;28;20232;-69
2022/08/29 09:57:53;;;;;;;3.08;2.13;;;36.50;41.90;;;;;;6228932;28;20232;-68
2022/08/29 10:01:02;;;;;;;3.35;2.70;;;36.20;43.30;;;;;;6229163;28;20252;-67
2022/08/29 10:04:08;;;;;;;3.05;2.85;;;35.30;43.70;;;;;;6228992;28;20570;-67
2022/08/29 10:07:16;;;;;;;2.42;2.22;;;35.20;44.90;;;;;;6228899;28;20232;-67
2022/08/29 10:10:22;;;;;;;2.40;2.25;;;34.90;45.10;;;;;;6224449;28;20236;-68
2022/08/29 10:13:32;;;;;;;2.97;2.72;;;34.50;45.70;;;;;;6228770;28;20239;-68
2022/08/29 10:16:48;;;;;;;3.45;3.15;;;34.00;46.90;;;;;;6228656;28;20252;-67
2022/08/29 10:19:51;;;;;;;4.63;3.50;;;33.50;48.40;;;;;;6229135;28;20242;-65
2022/08/29 10:23:00;;;;;;;3.05;2.85;;;33.00;49.10;;;;;;6228571;28;20240;-66
2022/08/29 10:26:12;;;;;;;3.42;3.20;;;32.30;50.40;;;;;;6228315;28;20247;-66
2022/08/29 10:29:26;;;;;;;3.58;3.30;;;31.80;52.90;;;;;;6227746;28;20243;-66
2022/08/29 10:32:55;;;;;;;3.67;3.38;;;31.60;54.00;;;;;;6225641;28;20316;-67
2022/08/29 10:36:01;;;;;;;4.00;3.58;;;31.30;56.20;;;;;;6227347;28;20305;-66
2022/08/29 10:39:13;;;;;;;3.35;2.90;;;30.60;60.70;;;;;;6226767;28;20225;-66
2022/08/29 10:42:21;;;;;;;3.70;3.30;;;29.90;64.50;;;;;;6227846;28;20239;-67
2022/08/29 10:45:34;;;;;;;4.83;3.93;;;29.30;67.00;;;;;;6228182;28;20247;-67
2022/08/29 10:48:47;;;;;;;3.63;3.33;;;28.80;71.10;;;;;;6227611;28;20232;-67
2022/08/29 10:52:01;;;;;;;3.87;3.40;;;28.40;73.20;;;;;;6227687;28;20722;-66
2022/08/29 10:55:15;;;;;;;5.00;3.30;;;28.10;79.70;;;;;;6226714;28;20240;-66
2022/08/29 10:58:31;;;;;;;4.30;3.90;;;27.80;84.30;;;;;;6227096;28;20220;-66
2022/08/29 11:01:40;;;;;;;6.30;3.93;;;27.50;87.30;;;;;;6226686;28;20243;-66
2022/08/29 11:04:50;;;;;;;5.17;4.50;;;27.30;88.00;;;;;;6226077;28;20676;-66
2022/08/29 11:08:01;;;;;;;4.83;3.83;;;26.80;90.60;;;;;;6227182;28;20244;-67
2022/08/29 11:11:04;;;;;;;4.70;3.53;;;26.60;93.60;;;;;;6203414;28;20524;-66
2022/08/29 11:14:19;;;;;;;10.50;9.60;;;26.40;95.10;;;;;;6198636;28;20224;-66
2022/08/29 11:17:25;;;;;;;5.67;5.13;;;26.20;95.30;;;;;;6202849;28;20233;-66
2022/08/29 11:20:34;;;;;;;4.77;4.23;;;26.00;96.20;;;;;;6205377;28;20229;-66
2022/08/29 11:23:39;;;;;;;5.93;3.83;;;25.90;97.20;;;;;;6227439;28;20229;-66
2022/08/29 11:26:52;;;;;;;5.17;3.30;;;25.80;98.10;;;;;;6227321;28;20344;-67
2022/08/29 11:30:03;;;;;;;4.67;3.57;;;25.70;97.60;;;;;;6227466;28;20228;-67
2022/08/29 11:33:17;;;;;;;4.70;4.30;;;25.70;99.20;;;;;;6227395;28;20308;-66
2022/08/29 11:36:32;;;;;;;4.40;3.60;;;25.70;99.50;;;;;;6226720;28;20251;-67
2022/08/29 11:39:50;;;;;;;4.10;3.70;;;25.70;99.90;;;;;;6227049;28;20225;-67
2022/08/29 11:42:54;;;;;;;3.83;3.30;;;25.50;99.90;;;;;;6227127;28;20232;-67
2022/08/29 11:46:01;;;;;;;3.73;3.43;;;25.30;99.90;;;;;;6226623;28;20232;-67
2022/08/29 11:49:34;;;;;;;4.67;4.27;;;25.10;99.90;;;;;;6226331;28;20719;-66
2022/08/29 11:52:53;;;;;;;5.33;3.87;;;24.90;99.90;;;;;;6223633;28;20231;-67
2022/08/29 11:56:22;;;;;;;5.60;4.13;;;24.80;99.90;;;;;;6225868;28;20255;-67
2022/08/29 11:59:57;;;;;;;5.80;4.97;;;24.80;99.90;;;;;;6225894;28;20233;-66
2022/08/29 12:03:02;;;;;;;5.43;4.80;;;24.60;99.90;;;;;;6226147;28;20225;-66
2022/08/29 12:06:39;;;;;;;5.77;5.20;;;24.60;99.90;;;;;;6226121;28;20240;-66
2022/08/29 12:09:51;;;;;;;5.33;4.37;;;24.50;99.90;;;;;;6201383;28;20234;-66
2022/08/29 12:12:56;;;;;;;5.10;4.63;;;24.40;99.90;;;;;;6216227;28;20229;-66
2022/08/29 12:16:07;;;;;;;5.60;5.10;;;24.40;99.90;;;;;;6226110;28;20237;-66
2022/08/29 12:19:34;;;;;;;5.03;4.57;;;24.30;99.90;;;;;;6217152;28;20363;-68
2022/08/29 12:22:55;;;;;;;5.83;4.80;;;24.20;99.90;;;;;;6225611;28;20229;-67
2022/08/29 12:26:01;;;;;;;5.40;4.90;;;24.20;99.90;;;;;;6225709;28;20236;-67
2022/08/29 12:29:25;;;;;;;5.80;5.30;;;24.20;99.90;;;;;;6225806;28;20229;-67
2022/08/29 12:32:41;;;;;;;6.23;5.37;;;24.20;99.90;;;;;;6225646;28;20592;-67
2022/08/29 12:36:06;;;;;;;5.43;5.00;;;24.20;99.90;;;;;;6225478;28;20233;-67
2022/08/29 12:39:40;;;;;;;5.40;5.00;;;24.20;99.90;;;;;;6224932;28;20303;-67
2022/08/29 12:42:52;;;;;;;7.37;5.97;;;24.20;99.90;;;;;;6225378;28;20225;-66
2022/08/29 12:45:56;;;;;;;5.87;5.33;;;24.20;99.90;;;;;;6223097;28;20225;-69
2022/08/29 12:49:07;;;;;;;5.90;5.37;;;24.20;99.90;;;;;;6224924;28;20236;-68
2022/08/29 12:52:23;;;;;;;8.80;5.60;;;24.20;99.90;;;;;;6225093;28;20229;-69
2022/08/29 12:55:29;;;;;;;5.97;5.40;;;24.10;99.90;;;;;;6224439;28;20252;-67
2022/08/29 12:58:45;;;;;;;5.33;4.83;;;24.10;99.90;;;;;;6223796;28;20232;-67
2022/08/29 13:01:50;;;;;;;5.47;4.70;;;24.10;99.90;;;;;;6221864;28;20220;-66
2022/08/29 13:04:58;;;;;;;6.03;5.53;;;24.30;99.90;;;;;;6224463;28;20240;-68
2022/08/29 13:08:06;;;;;;;6.40;4.83;;;24.50;99.90;;;;;;6224320;28;20217;-66
2022/08/29 13:11:20;;;;;;;4.87;4.37;;;24.60;99.90;;;;;;6221805;28;20198;-66
2022/08/29 13:14:23;;;;;;;5.00;4.60;;;24.90;99.90;;;;;;6223654;28;20744;-65
2022/08/29 13:17:29;;;;;;;5.43;4.13;;;25.30;99.90;;;;;;6220751;28;20232;-66
2022/08/29 13:20:46;;;;;;;4.20;3.80;;;25.70;99.90;;;;;;6225704;28;20534;-66
2022/08/29 13:24:00;;;;;;;4.20;3.87;;;26.00;99.90;;;;;;6229115;28;20233;-66
2022/08/29 13:27:07;;;;;;;4.80;4.10;;;26.30;99.90;;;;;;6229832;28;20232;-66
2022/08/29 13:30:21;;;;;;;4.53;3.97;;;26.60;99.90;;;;;;6229394;28;20228;-66
2022/08/29 13:33:28;;;;;;;3.60;3.30;;;27.00;99.90;;;;;;6229322;28;20239;-66
2022/08/29 13:36:41;;;;;;;5.50;4.53;;;27.30;99.90;;;;;;6229410;28;20232;-67
2022/08/29 13:39:47;;;;;;;5.90;3.80;;;27.50;99.90;;;;;;6229174;28;20613;-67
2022/08/29 13:42:50;;;;;;;4.03;3.73;;;27.70;99.90;;;;;;6229170;28;20225;-67
2022/08/29 13:46:02;;;;;;;6.53;3.63;;;28.00;99.90;;;;;;6229291;28;20573;-66
2022/08/29 13:49:07;;;;;;;3.67;3.37;;;28.20;99.90;;;;;;6228916;28;20624;-67
2022/08/29 13:52:11;;;;;;;4.40;3.60;;;28.30;99.90;;;;;;6228130;28;20671;-66
2022/08/29 13:55:16;;;;;;;4.00;3.67;;;28.40;98.20;;;;;;6227212;28;20273;-67
2022/08/29 13:58:21;;;;;;;3.83;3.53;;;28.50;98.00;;;;;;6228382;28;20231;-67
2022/08/29 14:01:24;;;;;;;4.10;3.70;;;28.30;98.70;;;;;;6228552;28;20599;-68
2022/08/29 14:04:47;;;;;;;5.00;4.10;;;28.40;98.50;;;;;;6228500;28;20228;-69
2022/08/29 14:07:51;;;;;;;3.50;3.20;;;28.30;98.10;;;;;;6228182;28;20263;-68
2022/08/29 14:10:55;;;;;;;3.67;2.83;;;28.30;98.60;;;;;;6229069;28;20236;-68
2022/08/29 14:13:58;;;;;;;3.90;3.50;;;28.10;96.90;;;;;;6228515;28;20625;-70
2022/08/29 14:17:02;;;;;;;3.87;3.57;;;28.20;97.00;;;;;;6228527;28;20229;-67
2022/08/29 14:20:08;;;;;;;5.37;3.10;;;28.20;96.90;;;;;;6228596;28;20200;-67
2022/08/29 14:23:11;;;;;;;3.50;3.20;;;28.00;96.70;;;;;;6224332;28;20667;-68
2022/08/29 14:26:16;;;;;;;3.47;2.80;;;28.10;96.90;;;;;;6228310;28;20291;-67
2022/08/29 14:29:19;;;;;;;3.00;2.70;;;28.10;95.80;;;;;;6227452;28;20240;-69
2022/08/29 14:32:23;;;;;;;2.80;2.50;;;27.90;95.40;;;;;;6226614;28;20241;-68
2022/08/29 14:35:28;;;;;;;3.23;2.90;;;27.70;95.20;;;;;;6226847;28;20315;-67
2022/08/29 14:38:34;;;;;;;2.90;2.53;;;27.70;95.40;;;;;;6226837;28;20225;-67
2022/08/29 14:41:40;;;;;;;2.90;2.70;;;27.60;95.60;;;;;;6226687;28;20247;-67
2022/08/29 14:44:43;;;;;;;3.00;2.70;;;27.60;95.90;;;;;;6224910;28;20236;-69
2022/08/29 14:47:46;;;;;;;3.00;2.70;;;27.60;96.10;;;;;;6227712;28;20700;-68
2022/08/29 14:50:50;;;;;;;3.30;2.73;;;27.50;96.20;;;;;;6225982;28;20224;-69
2022/08/29 14:53:53;;;;;;;2.40;2.20;;;27.40;95.20;;;;;;6225625;28;20224;-69
2022/08/29 14:56:58;;;;;;;2.40;2.20;;;27.20;94.60;;;;;;6226050;28;20235;-69
2022/08/29 15:00:01;;;;;;;2.90;2.70;;;27.10;94.90;;;;;;6226040;28;20234;-70
2022/08/29 15:03:04;;;;;;;2.90;2.53;;;27.20;94.30;;;;;;6225964;28;20231;-70
2022/08/29 15:06:08;;;;;;;2.17;2.07;;;27.10;93.60;;;;;;6226945;28;20578;-68
2022/08/29 15:09:11;;;;;;;2.20;2.00;;;26.90;93.70;;;;;;6227772;28;20704;-68
2022/08/29 15:12:16;;;;;;;3.53;2.30;;;26.80;93.20;;;;;;6227447;28;20238;-69
2022/08/29 15:15:27;;;;;;;2.23;2.03;;;26.80;93.30;;;;;;6227488;28;20233;-70
2022/08/29 15:18:30;;;;;;;3.23;3.03;;;26.80;92.80;;;;;;6227902;28;20240;-68
2022/08/29 15:21:53;;;;;;;2.50;2.30;;;26.90;92.90;;;;;;6225650;28;20217;-65
2022/08/29 15:24:58;;;;;;;2.97;2.63;;;27.00;92.80;;;;;;6226302;28;20547;-66
2022/08/29 15:28:04;;;;;;;2.43;2.23;;;27.00;92.80;;;;;;6226053;28;20224;-68
2022/08/29 15:31:07;;;;;;;2.53;2.33;;;27.10;92.30;;;;;;6220082;28;20235;-68
2022/08/29 15:34:11;;;;;;;3.20;3.00;;;27.10;92.00;;;;;;6225943;28;20536;-68
2022/08/29 15:37:14;;;;;;;3.73;3.40;;;27.10;92.60;;;;;;6225506;28;20229;-68
2022/08/29 15:40:18;;;;;;;3.40;2.90;;;27.20;93.00;;;;;;6225803;28;20216;-68
2022/08/29 15:43:22;;;;;;;3.00;2.80;;;27.20;92.90;;;;;;6224861;28;20224;-68
2022/08/29 15:46:26;;;;;;;3.10;2.80;;;27.20;92.30;;;;;;6224152;28;20224;-68
2022/08/29 15:49:29;;;;;;;3.53;2.73;;;27.20;92.30;;;;;;6224184;28;20228;-68
2022/08/29 15:52:34;;;;;;;3.10;2.80;;;27.10;92.30;;;;;;6221931;28;20743;-67
2022/08/29 15:55:37;;;;;;;2.67;2.47;;;27.10;92.50;;;;;;6225815;28;20236;-67
2022/08/29 15:58:48;;;;;;;2.80;2.50;;;27.00;92.60;;;;;;6201956;28;20580;-67
2022/08/29 16:01:54;;;;;;;3.40;2.80;;;27.00;93.00;;;;;;6201778;28;20229;-68
2022/08/29 16:04:58;;;;;;;3.50;3.20;;;26.90;92.70;;;;;;6220221;28;20228;-68
2022/08/29 16:08:02;;;;;;;3.77;3.37;;;26.90;92.70;;;;;;6226597;28;20211;-68